sensor_id;sensor_type;location;lat;lon;timestamp;P1;durP1;ratioP1;P2;durP2;ratioP2
70576;SDS011;58138;43.138;24.702;2022-12-29T00:02:25;29.20;;;18.98;;
70576;SDS011;58138;43.138;24.702;2022-12-29T00:04:51;26.70;;;15.38;;
70576;SDS011;58138;43.138;24.702;2022-12-29T00:07:16;21.75;;;14.77;;
70576;SDS011;58138;43.138;24.702;2022-12-29T00:09:42;32.20;;;17.90;;
70576;SDS011;58138;43.138;24.702;2022-12-29T00:12:08;22.83;;;14.15;;
70576;SDS011;58138;43.138;24.702;2022-12-29T00:14:33;21.67;;;13.60;;
70576;SDS011;58138;43.138;24.702;2022-12-29T00:17:17;21.80;;;13.00;;
70576;SDS011;58138;43.138;24.702;2022-12-29T00:19:43;24.58;;;13.95;;
70576;SDS011;58138;43.138;24.702;2022-12-29T00:22:27;32.67;;;17.73;;
70576;SDS011;58138;43.138;24.702;2022-12-29T00:25:11;32.58;;;19.25;;
70576;SDS011;58138;43.138;24.702;2022-12-29T00:27:56;31.23;;;17.42;;
70576;SDS011;58138;43.138;24.702;2022-12-29T00:30:40;27.70;;;16.75;;
70576;SDS011;58138;43.138;24.702;2022-12-29T00:33:32;22.80;;;14.45;;
70576;SDS011;58138;43.138;24.702;2022-12-29T00:38:43;29.02;;;15.93;;
70576;SDS011;58138;43.138;24.702;2022-12-29T00:41:30;24.83;;;15.18;;
70576;SDS011;58138;43.138;24.702;2022-12-29T00:44:14;23.88;;;14.18;;
70576;SDS011;58138;43.138;24.702;2022-12-29T00:46:40;29.58;;;15.95;;
70576;SDS011;58138;43.138;24.702;2022-12-29T00:49:07;25.77;;;15.00;;
70576;SDS011;58138;43.138;24.702;2022-12-29T00:51:53;25.95;;;15.07;;
70576;SDS011;58138;43.138;24.702;2022-12-29T00:54:20;19.88;;;12.68;;
70576;SDS011;58138;43.138;24.702;2022-12-29T00:56:46;24.38;;;12.40;;
70576;SDS011;58138;43.138;24.702;2022-12-29T00:59:13;20.58;;;11.93;;
70576;SDS011;58138;43.138;24.702;2022-12-29T01:01:38;19.67;;;10.80;;
70576;SDS011;58138;43.138;24.702;2022-12-29T01:04:04;16.35;;;8.65;;
70576;SDS011;58138;43.138;24.702;2022-12-29T01:06:30;13.85;;;8.05;;
70576;SDS011;58138;43.138;24.702;2022-12-29T01:08:56;21.08;;;12.32;;
70576;SDS011;58138;43.138;24.702;2022-12-29T01:11:42;18.52;;;10.63;;
70576;SDS011;58138;43.138;24.702;2022-12-29T01:14:08;20.13;;;12.05;;
70576;SDS011;58138;43.138;24.702;2022-12-29T01:16:33;20.75;;;11.70;;
70576;SDS011;58138;43.138;24.702;2022-12-29T01:18:59;18.80;;;11.27;;
70576;SDS011;58138;43.138;24.702;2022-12-29T01:21:25;18.15;;;10.90;;
70576;SDS011;58138;43.138;24.702;2022-12-29T01:23:50;19.98;;;11.70;;
70576;SDS011;58138;43.138;24.702;2022-12-29T01:26:16;19.40;;;11.10;;
70576;SDS011;58138;43.138;24.702;2022-12-29T01:28:42;21.38;;;11.63;;
70576;SDS011;58138;43.138;24.702;2022-12-29T01:31:08;20.63;;;12.57;;
70576;SDS011;58138;43.138;24.702;2022-12-29T01:33:37;24.00;;;13.65;;
70576;SDS011;58138;43.138;24.702;2022-12-29T01:36:03;20.25;;;12.35;;
70576;SDS011;58138;43.138;24.702;2022-12-29T01:38:30;23.30;;;12.95;;
70576;SDS011;58138;43.138;24.702;2022-12-29T01:40:56;18.70;;;11.13;;
70576;SDS011;58138;43.138;24.702;2022-12-29T01:43:37;13.07;;;8.70;;
70576;SDS011;58138;43.138;24.702;2022-12-29T01:46:36;10.68;;;6.85;;
70576;SDS011;58138;43.138;24.702;2022-12-29T01:51:36;10.55;;;7.18;;
70576;SDS011;58138;43.138;24.702;2022-12-29T01:54:17;11.02;;;7.47;;
70576;SDS011;58138;43.138;24.702;2022-12-29T01:56:57;11.85;;;7.90;;
70576;SDS011;58138;43.138;24.702;2022-12-29T01:59:24;12.20;;;7.93;;
70576;SDS011;58138;43.138;24.702;2022-12-29T02:01:53;16.88;;;8.90;;
70576;SDS011;58138;43.138;24.702;2022-12-29T02:04:19;15.75;;;9.00;;
70576;SDS011;58138;43.138;24.702;2022-12-29T02:06:49;23.70;;;14.68;;
70576;SDS011;58138;43.138;24.702;2022-12-29T02:11:42;22.75;;;13.88;;
70576;SDS011;58138;43.138;24.702;2022-12-29T02:14:08;23.30;;;13.68;;
70576;SDS011;58138;43.138;24.702;2022-12-29T02:33:30;47.00;;;28.70;;
70576;SDS011;58138;43.138;24.702;2022-12-29T02:39:08;48.28;;;28.40;;
70576;SDS011;58138;43.138;24.702;2022-12-29T02:46:54;49.88;;;29.27;;
70576;SDS011;58138;43.138;24.702;2022-12-29T02:49:35;40.70;;;21.50;;
70576;SDS011;58138;43.138;24.702;2022-12-29T02:52:25;37.25;;;24.48;;
70576;SDS011;58138;43.138;24.702;2022-12-29T02:54:53;40.85;;;25.38;;
70576;SDS011;58138;43.138;24.702;2022-12-29T02:59:48;37.75;;;21.92;;
70576;SDS011;58138;43.138;24.702;2022-12-29T03:10:46;32.47;;;20.33;;
70576;SDS011;58138;43.138;24.702;2022-12-29T03:13:34;37.10;;;20.92;;
70576;SDS011;58138;43.138;24.702;2022-12-29T03:22:05;20.75;;;13.07;;
70576;SDS011;58138;43.138;24.702;2022-12-29T03:24:52;25.65;;;13.50;;
70576;SDS011;58138;43.138;24.702;2022-12-29T03:27:25;20.00;;;11.98;;
70576;SDS011;58138;43.138;24.702;2022-12-29T03:29:55;14.98;;;8.50;;
70576;SDS011;58138;43.138;24.702;2022-12-29T03:32:25;19.42;;;11.38;;
70576;SDS011;58138;43.138;24.702;2022-12-29T03:34:53;21.40;;;11.80;;
70576;SDS011;58138;43.138;24.702;2022-12-29T03:37:23;16.92;;;9.90;;
70576;SDS011;58138;43.138;24.702;2022-12-29T03:39:51;18.83;;;9.98;;
70576;SDS011;58138;43.138;24.702;2022-12-29T03:42:18;17.13;;;10.02;;
70576;SDS011;58138;43.138;24.702;2022-12-29T03:44:46;15.05;;;9.85;;
70576;SDS011;58138;43.138;24.702;2022-12-29T03:47:12;17.13;;;10.10;;
70576;SDS011;58138;43.138;24.702;2022-12-29T03:49:38;26.65;;;13.23;;
70576;SDS011;58138;43.138;24.702;2022-12-29T03:52:04;25.13;;;11.90;;
70576;SDS011;58138;43.138;24.702;2022-12-29T03:54:30;20.15;;;11.30;;
70576;SDS011;58138;43.138;24.702;2022-12-29T03:56:56;28.83;;;14.23;;
70576;SDS011;58138;43.138;24.702;2022-12-29T03:59:21;28.92;;;16.05;;
70576;SDS011;58138;43.138;24.702;2022-12-29T04:01:47;37.28;;;19.83;;
70576;SDS011;58138;43.138;24.702;2022-12-29T04:04:12;38.95;;;20.50;;
70576;SDS011;58138;43.138;24.702;2022-12-29T04:06:38;36.65;;;19.55;;
70576;SDS011;58138;43.138;24.702;2022-12-29T04:09:03;28.23;;;14.20;;
70576;SDS011;58138;43.138;24.702;2022-12-29T04:11:29;30.90;;;17.60;;
70576;SDS011;58138;43.138;24.702;2022-12-29T04:13:54;31.00;;;16.25;;
70576;SDS011;58138;43.138;24.702;2022-12-29T04:16:20;35.88;;;17.63;;
70576;SDS011;58138;43.138;24.702;2022-12-29T04:18:45;38.88;;;20.38;;
70576;SDS011;58138;43.138;24.702;2022-12-29T04:21:11;30.13;;;16.00;;
70576;SDS011;58138;43.138;24.702;2022-12-29T04:23:37;30.88;;;15.63;;
70576;SDS011;58138;43.138;24.702;2022-12-29T04:26:03;18.70;;;10.40;;
70576;SDS011;58138;43.138;24.702;2022-12-29T04:28:29;15.85;;;9.05;;
70576;SDS011;58138;43.138;24.702;2022-12-29T04:30:55;16.70;;;8.68;;
70576;SDS011;58138;43.138;24.702;2022-12-29T04:33:20;17.45;;;11.05;;
70576;SDS011;58138;43.138;24.702;2022-12-29T04:35:46;15.05;;;9.23;;
70576;SDS011;58138;43.138;24.702;2022-12-29T04:38:12;22.13;;;12.05;;
70576;SDS011;58138;43.138;24.702;2022-12-29T04:40:38;19.73;;;12.07;;
70576;SDS011;58138;43.138;24.702;2022-12-29T04:43:04;20.95;;;12.02;;
70576;SDS011;58138;43.138;24.702;2022-12-29T04:45:30;21.85;;;12.82;;
70576;SDS011;58138;43.138;24.702;2022-12-29T04:47:56;24.80;;;13.68;;
70576;SDS011;58138;43.138;24.702;2022-12-29T04:50:21;23.45;;;12.50;;
70576;SDS011;58138;43.138;24.702;2022-12-29T04:52:47;19.77;;;10.43;;
70576;SDS011;58138;43.138;24.702;2022-12-29T04:55:12;20.50;;;11.27;;
70576;SDS011;58138;43.138;24.702;2022-12-29T04:57:38;26.50;;;14.48;;
70576;SDS011;58138;43.138;24.702;2022-12-29T05:00:04;34.30;;;16.65;;
70576;SDS011;58138;43.138;24.702;2022-12-29T05:02:30;31.30;;;17.90;;
70576;SDS011;58138;43.138;24.702;2022-12-29T05:04:55;36.17;;;16.77;;
70576;SDS011;58138;43.138;24.702;2022-12-29T05:07:20;33.05;;;18.40;;
70576;SDS011;58138;43.138;24.702;2022-12-29T05:09:46;31.83;;;18.00;;
70576;SDS011;58138;43.138;24.702;2022-12-29T05:12:11;31.45;;;15.07;;
70576;SDS011;58138;43.138;24.702;2022-12-29T05:14:37;23.40;;;13.18;;
70576;SDS011;58138;43.138;24.702;2022-12-29T05:20:24;22.55;;;11.05;;
70576;SDS011;58138;43.138;24.702;2022-12-29T05:22:49;20.58;;;10.60;;
70576;SDS011;58138;43.138;24.702;2022-12-29T05:25:15;15.60;;;9.32;;
70576;SDS011;58138;43.138;24.702;2022-12-29T05:27:40;26.35;;;14.95;;
70576;SDS011;58138;43.138;24.702;2022-12-29T05:30:06;25.52;;;14.80;;
70576;SDS011;58138;43.138;24.702;2022-12-29T05:32:31;15.35;;;8.07;;
70576;SDS011;58138;43.138;24.702;2022-12-29T05:34:57;31.27;;;18.50;;
70576;SDS011;58138;43.138;24.702;2022-12-29T05:37:23;28.38;;;12.52;;
70576;SDS011;58138;43.138;24.702;2022-12-29T05:39:48;23.70;;;12.63;;
70576;SDS011;58138;43.138;24.702;2022-12-29T05:42:13;19.98;;;9.63;;
70576;SDS011;58138;43.138;24.702;2022-12-29T05:44:39;20.52;;;10.45;;
70576;SDS011;58138;43.138;24.702;2022-12-29T05:47:04;25.25;;;12.80;;
70576;SDS011;58138;43.138;24.702;2022-12-29T05:49:30;27.90;;;15.07;;
70576;SDS011;58138;43.138;24.702;2022-12-29T05:55:08;33.17;;;19.23;;
70576;SDS011;58138;43.138;24.702;2022-12-29T05:57:34;36.55;;;21.88;;
70576;SDS011;58138;43.138;24.702;2022-12-29T05:59:59;51.55;;;30.48;;
70576;SDS011;58138;43.138;24.702;2022-12-29T06:02:25;44.70;;;23.42;;
70576;SDS011;58138;43.138;24.702;2022-12-29T06:04:50;39.83;;;22.52;;
70576;SDS011;58138;43.138;24.702;2022-12-29T06:07:16;49.45;;;26.48;;
70576;SDS011;58138;43.138;24.702;2022-12-29T06:09:41;42.85;;;23.50;;
70576;SDS011;58138;43.138;24.702;2022-12-29T06:12:06;40.75;;;22.60;;
70576;SDS011;58138;43.138;24.702;2022-12-29T06:14:32;45.30;;;26.33;;
70576;SDS011;58138;43.138;24.702;2022-12-29T06:16:57;46.05;;;27.80;;
70576;SDS011;58138;43.138;24.702;2022-12-29T06:19:23;45.00;;;24.67;;
70576;SDS011;58138;43.138;24.702;2022-12-29T06:21:48;52.00;;;30.15;;
70576;SDS011;58138;43.138;24.702;2022-12-29T06:24:14;54.03;;;28.17;;
70576;SDS011;58138;43.138;24.702;2022-12-29T06:26:39;51.83;;;28.70;;
70576;SDS011;58138;43.138;24.702;2022-12-29T06:29:05;57.92;;;31.48;;
70576;SDS011;58138;43.138;24.702;2022-12-29T06:31:33;55.28;;;28.70;;
70576;SDS011;58138;43.138;24.702;2022-12-29T06:33:58;66.60;;;33.92;;
70576;SDS011;58138;43.138;24.702;2022-12-29T06:36:24;51.85;;;29.23;;
70576;SDS011;58138;43.138;24.702;2022-12-29T06:38:49;50.00;;;28.05;;
70576;SDS011;58138;43.138;24.702;2022-12-29T06:41:17;53.92;;;27.80;;
70576;SDS011;58138;43.138;24.702;2022-12-29T06:43:43;41.22;;;22.17;;
70576;SDS011;58138;43.138;24.702;2022-12-29T06:46:08;32.92;;;17.75;;
70576;SDS011;58138;43.138;24.702;2022-12-29T06:48:34;30.10;;;18.38;;
70576;SDS011;58138;43.138;24.702;2022-12-29T06:50:59;23.80;;;14.30;;
70576;SDS011;58138;43.138;24.702;2022-12-29T06:53:25;22.00;;;12.60;;
70576;SDS011;58138;43.138;24.702;2022-12-29T06:55:50;35.80;;;19.90;;
70576;SDS011;58138;43.138;24.702;2022-12-29T06:58:16;23.52;;;14.80;;
70576;SDS011;58138;43.138;24.702;2022-12-29T07:00:41;32.90;;;17.52;;
70576;SDS011;58138;43.138;24.702;2022-12-29T07:03:07;30.15;;;17.80;;
70576;SDS011;58138;43.138;24.702;2022-12-29T07:05:32;23.05;;;13.90;;
70576;SDS011;58138;43.138;24.702;2022-12-29T07:07:58;30.83;;;18.90;;
70576;SDS011;58138;43.138;24.702;2022-12-29T07:10:23;28.70;;;19.00;;
70576;SDS011;58138;43.138;24.702;2022-12-29T07:12:49;56.85;;;35.28;;
70576;SDS011;58138;43.138;24.702;2022-12-29T07:15:15;34.33;;;20.95;;
70576;SDS011;58138;43.138;24.702;2022-12-29T07:17:40;42.85;;;25.73;;
70576;SDS011;58138;43.138;24.702;2022-12-29T07:20:06;49.38;;;29.33;;
70576;SDS011;58138;43.138;24.702;2022-12-29T07:22:32;56.05;;;35.13;;
70576;SDS011;58138;43.138;24.702;2022-12-29T07:24:57;53.60;;;33.63;;
70576;SDS011;58138;43.138;24.702;2022-12-29T07:27:23;53.42;;;34.72;;
70576;SDS011;58138;43.138;24.702;2022-12-29T07:29:49;62.13;;;37.13;;
70576;SDS011;58138;43.138;24.702;2022-12-29T07:32:14;60.25;;;35.17;;
70576;SDS011;58138;43.138;24.702;2022-12-29T07:34:40;53.30;;;31.95;;
70576;SDS011;58138;43.138;24.702;2022-12-29T07:37:05;45.05;;;26.00;;
70576;SDS011;58138;43.138;24.702;2022-12-29T07:39:31;39.08;;;24.48;;
70576;SDS011;58138;43.138;24.702;2022-12-29T07:41:56;36.83;;;20.63;;
70576;SDS011;58138;43.138;24.702;2022-12-29T07:44:22;32.60;;;20.58;;
70576;SDS011;58138;43.138;24.702;2022-12-29T07:46:47;33.10;;;20.08;;
70576;SDS011;58138;43.138;24.702;2022-12-29T07:49:13;22.52;;;15.05;;
70576;SDS011;58138;43.138;24.702;2022-12-29T07:51:38;31.60;;;13.57;;
70576;SDS011;58138;43.138;24.702;2022-12-29T07:54:04;23.95;;;13.55;;
70576;SDS011;58138;43.138;24.702;2022-12-29T07:56:29;37.80;;;19.50;;
70576;SDS011;58138;43.138;24.702;2022-12-29T07:58:55;27.42;;;14.70;;
70576;SDS011;58138;43.138;24.702;2022-12-29T08:01:20;24.23;;;15.52;;
70576;SDS011;58138;43.138;24.702;2022-12-29T08:03:48;23.25;;;13.98;;
70576;SDS011;58138;43.138;24.702;2022-12-29T08:06:13;25.13;;;16.48;;
70576;SDS011;58138;43.138;24.702;2022-12-29T08:08:39;28.33;;;15.63;;
70576;SDS011;58138;43.138;24.702;2022-12-29T08:11:04;25.02;;;14.88;;
70576;SDS011;58138;43.138;24.702;2022-12-29T08:13:30;26.70;;;15.07;;
70576;SDS011;58138;43.138;24.702;2022-12-29T08:15:57;24.20;;;15.55;;
70576;SDS011;58138;43.138;24.702;2022-12-29T08:18:22;27.95;;;15.77;;
70576;SDS011;58138;43.138;24.702;2022-12-29T08:20:48;31.75;;;17.85;;
70576;SDS011;58138;43.138;24.702;2022-12-29T08:23:13;33.72;;;19.55;;
70576;SDS011;58138;43.138;24.702;2022-12-29T08:25:39;32.08;;;19.42;;
70576;SDS011;58138;43.138;24.702;2022-12-29T08:28:04;34.90;;;21.23;;
70576;SDS011;58138;43.138;24.702;2022-12-29T08:30:30;36.20;;;18.55;;
70576;SDS011;58138;43.138;24.702;2022-12-29T08:32:55;37.53;;;21.85;;
70576;SDS011;58138;43.138;24.702;2022-12-29T08:35:21;34.83;;;21.60;;
70576;SDS011;58138;43.138;24.702;2022-12-29T08:37:46;38.50;;;21.13;;
70576;SDS011;58138;43.138;24.702;2022-12-29T08:40:12;32.97;;;19.33;;
70576;SDS011;58138;43.138;24.702;2022-12-29T08:42:38;30.05;;;20.55;;
70576;SDS011;58138;43.138;24.702;2022-12-29T08:45:04;31.27;;;16.90;;
70576;SDS011;58138;43.138;24.702;2022-12-29T08:47:29;24.38;;;16.00;;
70576;SDS011;58138;43.138;24.702;2022-12-29T08:49:55;31.20;;;16.65;;
70576;SDS011;58138;43.138;24.702;2022-12-29T08:52:21;51.88;;;33.78;;
70576;SDS011;58138;43.138;24.702;2022-12-29T08:54:46;21.65;;;14.88;;
70576;SDS011;58138;43.138;24.702;2022-12-29T08:57:12;18.85;;;12.57;;
70576;SDS011;58138;43.138;24.702;2022-12-29T08:59:37;21.67;;;14.55;;
70576;SDS011;58138;43.138;24.702;2022-12-29T09:02:03;27.35;;;15.02;;
70576;SDS011;58138;43.138;24.702;2022-12-29T09:04:28;20.45;;;12.07;;
70576;SDS011;58138;43.138;24.702;2022-12-29T09:06:53;18.67;;;10.45;;
70576;SDS011;58138;43.138;24.702;2022-12-29T09:09:19;14.93;;;9.68;;
70576;SDS011;58138;43.138;24.702;2022-12-29T09:11:45;15.43;;;10.00;;
70576;SDS011;58138;43.138;24.702;2022-12-29T09:14:11;16.73;;;10.68;;
70576;SDS011;58138;43.138;24.702;2022-12-29T09:16:37;16.10;;;10.60;;
70576;SDS011;58138;43.138;24.702;2022-12-29T09:19:02;15.88;;;9.77;;
70576;SDS011;58138;43.138;24.702;2022-12-29T09:21:28;17.55;;;10.25;;
70576;SDS011;58138;43.138;24.702;2022-12-29T09:23:53;16.27;;;9.30;;
70576;SDS011;58138;43.138;24.702;2022-12-29T09:26:20;12.82;;;7.68;;
70576;SDS011;58138;43.138;24.702;2022-12-29T09:28:46;9.90;;;6.47;;
70576;SDS011;58138;43.138;24.702;2022-12-29T09:31:12;11.98;;;7.63;;
70576;SDS011;58138;43.138;24.702;2022-12-29T09:33:37;15.50;;;8.50;;
70576;SDS011;58138;43.138;24.702;2022-12-29T09:36:03;14.45;;;8.73;;
70576;SDS011;58138;43.138;24.702;2022-12-29T09:38:29;17.77;;;11.57;;
70576;SDS011;58138;43.138;24.702;2022-12-29T09:40:56;12.20;;;8.50;;
70576;SDS011;58138;43.138;24.702;2022-12-29T09:48:50;16.05;;;9.80;;
70576;SDS011;58138;43.138;24.702;2022-12-29T09:51:21;22.30;;;9.13;;
70576;SDS011;58138;43.138;24.702;2022-12-29T09:53:52;12.20;;;8.43;;
70576;SDS011;58138;43.138;24.702;2022-12-29T09:56:21;12.63;;;8.00;;
70576;SDS011;58138;43.138;24.702;2022-12-29T09:58:51;14.70;;;8.80;;
70576;SDS011;58138;43.138;24.702;2022-12-29T10:03:54;15.15;;;9.18;;
70576;SDS011;58138;43.138;24.702;2022-12-29T10:09:02;19.77;;;11.80;;
70576;SDS011;58138;43.138;24.702;2022-12-29T10:15:10;14.43;;;10.20;;
70576;SDS011;58138;43.138;24.702;2022-12-29T10:17:24;18.93;;;11.87;;
70576;SDS011;58138;43.138;24.702;2022-12-29T10:25:31;12.15;;;9.30;;
70576;SDS011;58138;43.138;24.702;2022-12-29T10:27:59;12.10;;;8.20;;
70576;SDS011;58138;43.138;24.702;2022-12-29T10:30:28;13.50;;;8.90;;
70576;SDS011;58138;43.138;24.702;2022-12-29T10:32:55;12.98;;;9.10;;
70576;SDS011;58138;43.138;24.702;2022-12-29T10:35:28;14.75;;;9.30;;
70576;SDS011;58138;43.138;24.702;2022-12-29T10:37:58;14.23;;;10.73;;
70576;SDS011;58138;43.138;24.702;2022-12-29T10:40:43;15.60;;;10.77;;
70576;SDS011;58138;43.138;24.702;2022-12-29T10:43:20;14.65;;;9.65;;
70576;SDS011;58138;43.138;24.702;2022-12-29T10:45:50;16.23;;;10.00;;
70576;SDS011;58138;43.138;24.702;2022-12-29T10:48:21;14.13;;;9.52;;
70576;SDS011;58138;43.138;24.702;2022-12-29T10:50:49;12.40;;;8.70;;
70576;SDS011;58138;43.138;24.702;2022-12-29T10:53:17;13.80;;;8.25;;
70576;SDS011;58138;43.138;24.702;2022-12-29T10:55:46;14.93;;;7.85;;
70576;SDS011;58138;43.138;24.702;2022-12-29T10:58:12;13.02;;;8.30;;
70576;SDS011;58138;43.138;24.702;2022-12-29T11:00:38;10.55;;;8.55;;
70576;SDS011;58138;43.138;24.702;2022-12-29T11:08:21;11.38;;;8.00;;
70576;SDS011;58138;43.138;24.702;2022-12-29T11:11:03;10.93;;;7.00;;
70576;SDS011;58138;43.138;24.702;2022-12-29T11:13:34;10.93;;;7.50;;
70576;SDS011;58138;43.138;24.702;2022-12-29T11:16:11;14.18;;;7.90;;
70576;SDS011;58138;43.138;24.702;2022-12-29T11:18:38;16.13;;;8.93;;
70576;SDS011;58138;43.138;24.702;2022-12-29T11:21:50;11.88;;;8.30;;
70576;SDS011;58138;43.138;24.702;2022-12-29T11:24:03;19.58;;;8.98;;
70576;SDS011;58138;43.138;24.702;2022-12-29T11:26:30;12.98;;;8.32;;
70576;SDS011;58138;43.138;24.702;2022-12-29T11:31:49;12.32;;;8.65;;
70576;SDS011;58138;43.138;24.702;2022-12-29T11:34:21;12.90;;;8.50;;
70576;SDS011;58138;43.138;24.702;2022-12-29T11:36:48;15.93;;;8.32;;
70576;SDS011;58138;43.138;24.702;2022-12-29T11:39:24;13.23;;;8.68;;
70576;SDS011;58138;43.138;24.702;2022-12-29T11:41:52;13.38;;;8.50;;
70576;SDS011;58138;43.138;24.702;2022-12-29T11:44:18;16.40;;;8.15;;
70576;SDS011;58138;43.138;24.702;2022-12-29T11:46:44;11.63;;;8.25;;
70576;SDS011;58138;43.138;24.702;2022-12-29T11:49:19;15.88;;;7.75;;
70576;SDS011;58138;43.138;24.702;2022-12-29T11:51:46;13.48;;;8.45;;
70576;SDS011;58138;43.138;24.702;2022-12-29T11:54:18;12.95;;;7.55;;
70576;SDS011;58138;43.138;24.702;2022-12-29T11:56:50;17.85;;;10.65;;
70576;SDS011;58138;43.138;24.702;2022-12-29T12:02:03;15.25;;;11.15;;
70576;SDS011;58138;43.138;24.702;2022-12-29T12:05:17;11.80;;;9.20;;
70576;SDS011;58138;43.138;24.702;2022-12-29T12:07:54;24.63;;;15.15;;
70576;SDS011;58138;43.138;24.702;2022-12-29T12:10:32;13.10;;;9.30;;
70576;SDS011;58138;43.138;24.702;2022-12-29T12:15:52;25.60;;;18.25;;
70576;SDS011;58138;43.138;24.702;2022-12-29T12:20:59;15.80;;;10.40;;
70576;SDS011;58138;43.138;24.702;2022-12-29T12:23:43;14.82;;;9.30;;
70576;SDS011;58138;43.138;24.702;2022-12-29T12:26:20;15.05;;;7.85;;
70576;SDS011;58138;43.138;24.702;2022-12-29T12:34:19;11.20;;;7.65;;
70576;SDS011;58138;43.138;24.702;2022-12-29T12:39:41;9.27;;;6.72;;
70576;SDS011;58138;43.138;24.702;2022-12-29T12:42:13;10.02;;;7.47;;
70576;SDS011;58138;43.138;24.702;2022-12-29T12:47:27;13.73;;;8.27;;
70576;SDS011;58138;43.138;24.702;2022-12-29T13:00:47;11.02;;;6.38;;
70576;SDS011;58138;43.138;24.702;2022-12-29T13:09:00;12.75;;;7.70;;
70576;SDS011;58138;43.138;24.702;2022-12-29T13:12:11;12.15;;;8.80;;
70576;SDS011;58138;43.138;24.702;2022-12-29T13:14:39;22.25;;;8.48;;
70576;SDS011;58138;43.138;24.702;2022-12-29T13:19:46;15.43;;;8.05;;
70576;SDS011;58138;43.138;24.702;2022-12-29T13:22:17;13.30;;;7.43;;
70576;SDS011;58138;43.138;24.702;2022-12-29T13:24:47;14.32;;;9.13;;
70576;SDS011;58138;43.138;24.702;2022-12-29T13:37:32;23.45;;;8.60;;
70576;SDS011;58138;43.138;24.702;2022-12-29T13:40:02;13.63;;;8.85;;
70576;SDS011;58138;43.138;24.702;2022-12-29T13:42:29;14.18;;;9.00;;
70576;SDS011;58138;43.138;24.702;2022-12-29T13:50:02;14.82;;;9.20;;
70576;SDS011;58138;43.138;24.702;2022-12-29T13:55:32;14.90;;;9.13;;
70576;SDS011;58138;43.138;24.702;2022-12-29T14:00:57;16.48;;;10.30;;
70576;SDS011;58138;43.138;24.702;2022-12-29T14:06:19;12.77;;;8.95;;
70576;SDS011;58138;43.138;24.702;2022-12-29T14:08:59;14.55;;;8.70;;
70576;SDS011;58138;43.138;24.702;2022-12-29T14:11:32;13.52;;;10.10;;
70576;SDS011;58138;43.138;24.702;2022-12-29T14:14:11;17.20;;;9.70;;
70576;SDS011;58138;43.138;24.702;2022-12-29T14:16:42;13.80;;;10.55;;
70576;SDS011;58138;43.138;24.702;2022-12-29T14:21:54;17.50;;;10.57;;
70576;SDS011;58138;43.138;24.702;2022-12-29T14:32:38;36.65;;;20.20;;
70576;SDS011;58138;43.138;24.702;2022-12-29T14:34:57;41.67;;;19.53;;
70576;SDS011;58138;43.138;24.702;2022-12-29T14:37:46;39.65;;;20.52;;
70576;SDS011;58138;43.138;24.702;2022-12-29T14:42:48;35.08;;;19.38;;
70576;SDS011;58138;43.138;24.702;2022-12-29T14:47:44;52.33;;;24.33;;
70576;SDS011;58138;43.138;24.702;2022-12-29T14:58:20;44.20;;;25.00;;
70576;SDS011;58138;43.138;24.702;2022-12-29T15:00:50;39.88;;;22.77;;
70576;SDS011;58138;43.138;24.702;2022-12-29T15:05:55;60.13;;;31.38;;
70576;SDS011;58138;43.138;24.702;2022-12-29T15:08:23;64.45;;;29.77;;
70576;SDS011;58138;43.138;24.702;2022-12-29T15:10:54;54.50;;;29.27;;
70576;SDS011;58138;43.138;24.702;2022-12-29T15:15:50;61.67;;;28.08;;
70576;SDS011;58138;43.138;24.702;2022-12-29T15:18:28;53.55;;;30.35;;
70576;SDS011;58138;43.138;24.702;2022-12-29T15:21:02;54.35;;;31.90;;
70576;SDS011;58138;43.138;24.702;2022-12-29T15:23:29;66.50;;;31.85;;
70576;SDS011;58138;43.138;24.702;2022-12-29T15:26:00;59.50;;;32.20;;
70576;SDS011;58138;43.138;24.702;2022-12-29T15:29:03;69.80;;;32.67;;
70576;SDS011;58138;43.138;24.702;2022-12-29T15:31:22;67.35;;;35.50;;
70576;SDS011;58138;43.138;24.702;2022-12-29T15:33:53;63.38;;;35.60;;
70576;SDS011;58138;43.138;24.702;2022-12-29T15:36:20;64.80;;;33.30;;
70576;SDS011;58138;43.138;24.702;2022-12-29T15:38:51;62.65;;;33.03;;
70576;SDS011;58138;43.138;24.702;2022-12-29T15:41:34;54.53;;;29.50;;
70576;SDS011;58138;43.138;24.702;2022-12-29T15:44:38;67.22;;;35.85;;
70576;SDS011;58138;43.138;24.702;2022-12-29T15:47:05;68.03;;;41.38;;
70576;SDS011;58138;43.138;24.702;2022-12-29T15:49:35;74.30;;;42.65;;
70576;SDS011;58138;43.138;24.702;2022-12-29T15:52:05;95.90;;;54.85;;
70576;SDS011;58138;43.138;24.702;2022-12-29T15:54:31;87.95;;;48.30;;
70576;SDS011;58138;43.138;24.702;2022-12-29T15:56:57;95.13;;;51.28;;
70576;SDS011;58138;43.138;24.702;2022-12-29T15:59:24;86.35;;;46.47;;
70576;SDS011;58138;43.138;24.702;2022-12-29T16:01:53;90.72;;;46.65;;
70576;SDS011;58138;43.138;24.702;2022-12-29T16:04:20;88.20;;;41.97;;
70576;SDS011;58138;43.138;24.702;2022-12-29T16:06:56;85.35;;;45.10;;
70576;SDS011;58138;43.138;24.702;2022-12-29T16:09:36;76.72;;;44.38;;
70576;SDS011;58138;43.138;24.702;2022-12-29T16:12:17;50.33;;;29.97;;
70576;SDS011;58138;43.138;24.702;2022-12-29T16:14:47;74.10;;;38.75;;
70576;SDS011;58138;43.138;24.702;2022-12-29T16:17:15;231.73;;;122.88;;
70576;SDS011;58138;43.138;24.702;2022-12-29T16:19:48;84.97;;;45.13;;
70576;SDS011;58138;43.138;24.702;2022-12-29T16:22:17;65.95;;;39.13;;
70576;SDS011;58138;43.138;24.702;2022-12-29T16:24:57;94.55;;;46.85;;
70576;SDS011;58138;43.138;24.702;2022-12-29T16:27:32;92.25;;;50.47;;
70576;SDS011;58138;43.138;24.702;2022-12-29T16:30:03;112.80;;;60.72;;
70576;SDS011;58138;43.138;24.702;2022-12-29T16:32:30;100.60;;;51.58;;
70576;SDS011;58138;43.138;24.702;2022-12-29T16:37:36;119.53;;;69.45;;
70576;SDS011;58138;43.138;24.702;2022-12-29T16:42:47;93.95;;;51.15;;
70576;SDS011;58138;43.138;24.702;2022-12-29T16:45:32;79.15;;;45.80;;
70576;SDS011;58138;43.138;24.702;2022-12-29T16:48:16;92.95;;;50.88;;
70576;SDS011;58138;43.138;24.702;2022-12-29T16:51:05;101.55;;;56.58;;
70576;SDS011;58138;43.138;24.702;2022-12-29T16:53:37;91.65;;;53.00;;
70576;SDS011;58138;43.138;24.702;2022-12-29T16:56:16;90.32;;;51.90;;
70576;SDS011;58138;43.138;24.702;2022-12-29T16:58:50;122.68;;;67.18;;
70576;SDS011;58138;43.138;24.702;2022-12-29T17:01:19;108.07;;;59.95;;
70576;SDS011;58138;43.138;24.702;2022-12-29T17:03:56;102.30;;;55.05;;
70576;SDS011;58138;43.138;24.702;2022-12-29T17:06:24;113.40;;;59.50;;
70576;SDS011;58138;43.138;24.702;2022-12-29T17:08:49;96.50;;;55.33;;
70576;SDS011;58138;43.138;24.702;2022-12-29T17:11:19;100.57;;;55.63;;
70576;SDS011;58138;43.138;24.702;2022-12-29T17:14:09;94.43;;;51.63;;
70576;SDS011;58138;43.138;24.702;2022-12-29T17:16:57;93.82;;;47.58;;
70576;SDS011;58138;43.138;24.702;2022-12-29T17:19:29;76.15;;;44.83;;
70576;SDS011;58138;43.138;24.702;2022-12-29T17:21:56;82.40;;;45.78;;
70576;SDS011;58138;43.138;24.702;2022-12-29T17:24:21;72.88;;;44.40;;
70576;SDS011;58138;43.138;24.702;2022-12-29T17:26:48;78.22;;;45.47;;